Time;durP1;ratioP1;P1;durP2;ratioP2;P2;SDS_P1;SDS_P2;PMS_P1;PMS_P2;Temp;Humidity;BMP_temperature;BMP_pressure;BME280_temperature;BME280_humidity;BME280_pressure;Samples;Min_cycle;Max_cycle;Signal;HPM_P1;HPM_P2
2021/05/26 00:02:10;;;;;;;2.45;1.20;;;;;;;6.94;68.84;95817.63;5108870;28;20166;-72
2021/05/26 00:04:36;;;;;;;2.97;1.35;;;;;;;6.83;68.78;95815.88;5099584;28;20067;-72
2021/05/26 00:07:02;;;;;;;2.30;1.30;;;;;;;6.78;69.69;95813.16;5091038;28;20048;-71
2021/05/26 00:09:27;;;;;;;2.78;1.35;;;;;;;6.74;69.72;95811.03;5089907;28;20036;-71
2021/05/26 00:11:53;;;;;;;5.43;1.60;;;;;;;6.72;69.94;95807.88;5091361;28;20067;-71
2021/05/26 00:14:18;;;;;;;1.75;1.10;;;;;;;6.67;69.87;95809.63;5097759;28;20060;-72
2021/05/26 00:16:44;;;;;;;3.22;1.17;;;;;;;6.64;69.75;95800.41;5094636;28;20468;-71
2021/05/26 00:19:10;;;;;;;2.80;1.20;;;;;;;6.62;70.31;95804.28;5101243;28;20051;-71
2021/05/26 00:21:36;;;;;;;2.83;1.17;;;;;;;6.62;70.90;95799.84;5105348;28;20150;-71
2021/05/26 00:24:02;;;;;;;2.30;1.20;;;;;;;6.60;69.83;95796.69;5104404;28;20065;-72
2021/05/26 00:26:27;;;;;;;2.72;1.20;;;;;;;6.58;71.11;95801.38;5106462;28;20104;-72
2021/05/26 00:28:55;;;;;;;2.33;1.20;;;;;;;6.57;70.09;95797.94;5100942;28;20032;-73
2021/05/26 00:31:22;;;;;;;3.47;1.10;;;;;;;6.61;70.42;95793.03;5109950;28;20110;-72
2021/05/26 00:33:49;;;;;;;1.20;0.95;;;;;;;6.59;70.68;95790.66;5100603;28;20094;-72
2021/05/26 00:36:14;;;;;;;2.13;1.20;;;;;;;6.72;69.50;95789.56;5107680;28;20056;-71
2021/05/26 00:38:40;;;;;;;1.48;0.98;;;;;;;6.85;67.95;95792.88;5104086;28;20123;-72
2021/05/26 00:41:05;;;;;;;3.00;1.23;;;;;;;6.91;68.13;95786.69;5099343;28;20133;-72
2021/05/26 00:43:31;;;;;;;1.50;1.00;;;;;;;6.85;68.95;95777.19;5098336;28;20462;-71
2021/05/26 00:45:57;;;;;;;1.50;1.00;;;;;;;6.89;68.53;95788.75;5091171;28;20450;-71
2021/05/26 00:48:22;;;;;;;2.95;1.13;;;;;;;6.89;68.86;95778.28;5111123;28;20070;-71
2021/05/26 00:50:48;;;;;;;5.03;1.33;;;;;;;6.75;69.16;95783.84;5098152;28;20071;-71
2021/05/26 00:53:14;;;;;;;1.92;0.95;;;;;;;6.66;69.58;95774.03;5108401;28;20046;-71
2021/05/26 00:55:42;;;;;;;3.05;1.00;;;;;;;6.54;69.63;95768.88;5109103;28;20043;-72
2021/05/26 00:58:09;;;;;;;1.63;1.15;;;;;;;6.53;70.35;95777.72;5108652;28;20043;-71
2021/05/26 01:00:38;;;;;;;1.30;1.10;;;;;;;6.55;70.13;95762.59;5103287;28;20036;-71
2021/05/26 01:03:04;;;;;;;2.05;0.95;;;;;;;6.52;71.50;95768.28;5099616;28;20405;-71
2021/05/26 01:05:32;;;;;;;3.42;1.10;;;;;;;6.58;70.70;95767.38;5090967;28;20508;-71
2021/05/26 01:07:57;;;;;;;1.95;1.20;;;;;;;6.51;70.61;95756.28;5109311;28;20052;-71
2021/05/26 01:10:26;;;;;;;1.73;1.05;;;;;;;6.43;71.34;95754.03;5103355;28;20088;-72
2021/05/26 01:12:52;;;;;;;1.63;1.20;;;;;;;6.41;71.38;95757.69;5100833;28;20048;-71
2021/05/26 01:15:19;;;;;;;2.50;1.20;;;;;;;6.45;71.25;95754.59;5107224;28;20386;-71
2021/05/26 01:17:46;;;;;;;1.35;1.10;;;;;;;6.43;71.23;95754.03;5107551;28;20063;-72
2021/05/26 01:20:27;;;;;;;1.02;0.90;;;;;;;6.47;71.57;95755.16;5108434;28;20040;-71
2021/05/26 01:22:54;;;;;;;1.60;0.93;;;;;;;6.57;70.79;95750.09;5108346;28;20550;-71
2021/05/26 01:25:20;;;;;;;4.20;1.20;;;;;;;6.54;70.22;95746.13;5106763;28;20032;-71
2021/05/26 01:27:46;;;;;;;2.08;1.10;;;;;;;6.62;68.29;95741.53;5104724;28;20126;-72
2021/05/26 01:30:13;;;;;;;2.78;1.02;;;;;;;6.74;67.27;95745.66;5102360;28;20131;-74
2021/05/26 01:32:46;;;;;;;1.13;1.00;;;;;;;6.84;66.52;95731.94;5102994;28;20039;-72
2021/05/26 01:35:15;;;;;;;3.00;0.90;;;;;;;6.89;66.63;95739.06;5104083;28;20493;-71
2021/05/26 01:37:43;;;;;;;2.05;1.17;;;;;;;6.94;66.45;95739.13;5100118;28;20044;-71
2021/05/26 01:40:11;;;;;;;2.35;1.10;;;;;;;7.00;66.15;95732.94;5091864;28;20450;-72
2021/05/26 01:42:37;;;;;;;2.50;0.93;;;;;;;6.92;66.84;95731.53;5103981;28;20063;-72
2021/05/26 01:45:07;;;;;;;2.70;0.80;;;;;;;6.84;67.17;95728.50;5106376;28;20046;-72
2021/05/26 01:47:32;;;;;;;1.58;1.02;;;;;;;6.82;66.57;95720.13;5107767;28;21787;-72
2021/05/26 01:49:58;;;;;;;0.90;0.80;;;;;;;6.69;66.92;95722.03;5102118;28;20119;-72
2021/05/26 01:52:24;;;;;;;1.45;1.10;;;;;;;6.68;66.45;95724.88;5103081;28;20065;-72
2021/05/26 01:54:49;;;;;;;1.52;1.00;;;;;;;6.71;66.21;95719.97;5110808;28;20055;-73
2021/05/26 01:57:15;;;;;;;1.10;1.00;;;;;;;6.59;66.90;95721.88;5103703;28;20048;-72
2021/05/26 01:59:41;;;;;;;1.40;0.95;;;;;;;6.60;65.86;95713.00;5109051;28;20142;-72
2021/05/26 02:02:07;;;;;;;3.00;1.02;;;;;;;6.49;66.48;95717.28;5098587;28;20136;-72
2021/05/26 02:04:33;;;;;;;2.08;1.10;;;;;;;6.37;68.53;95719.19;5097347;28;20071;-72
2021/05/26 02:07:11;;;;;;;2.15;1.40;;;;;;;6.35;67.74;95711.56;5107517;28;20043;-72
2021/05/26 02:09:38;;;;;;;2.15;1.00;;;;;;;6.22;68.86;95707.44;5108740;28;20401;-72
2021/05/26 02:12:23;;;;;;;3.25;1.05;;;;;;;6.25;68.06;95708.81;5105412;28;20044;-73
2021/05/26 02:14:52;;;;;;;;;;;;;;;6.40;66.68;95703.81;5094323;28;20040;-72
2021/05/26 02:17:18;;;;;;;2.95;1.08;;;;;;;6.54;65.80;95708.72;5101023;28;20328;-72
2021/05/26 02:19:44;;;;;;;2.95;1.27;;;;;;;6.62;64.62;95703.09;5110255;28;20032;-74
2021/05/26 02:22:10;;;;;;;2.03;1.10;;;;;;;6.53;64.79;95704.53;5112634;28;20069;-72
2021/05/26 02:24:36;;;;;;;1.63;1.10;;;;;;;6.51;65.10;95701.38;5105049;28;20383;-72
2021/05/26 02:27:02;;;;;;;1.10;0.90;;;;;;;6.57;64.61;95709.03;5113086;28;20349;-73
2021/05/26 02:29:28;;;;;;;1.98;1.40;;;;;;;6.50;65.87;95697.94;5109462;28;20040;-72
2021/05/26 02:31:53;;;;;;;1.25;0.90;;;;;;;6.54;65.43;95698.28;5098729;28;20054;-72
2021/05/26 02:34:19;;;;;;;2.20;0.93;;;;;;;6.37;66.14;95698.28;5103749;28;20039;-72
2021/05/26 02:36:44;;;;;;;4.07;1.40;;;;;;;6.27;66.80;95698.13;5112423;28;20066;-73
2021/05/26 02:39:10;;;;;;;1.75;0.95;;;;;;;6.24;66.63;95694.94;5103124;28;20506;-72
2021/05/26 02:41:37;;;;;;;1.75;1.08;;;;;;;6.26;66.67;95692.06;5093029;28;20052;-72
2021/05/26 02:44:02;;;;;;;2.13;1.20;;;;;;;6.19;67.56;95691.44;5102153;28;20079;-73
2021/05/26 02:46:28;;;;;;;1.63;1.00;;;;;;;6.17;67.64;95688.28;5100661;28;20040;-72
2021/05/26 02:48:54;;;;;;;5.80;1.60;;;;;;;6.12;67.30;95690.78;5092231;28;20043;-72
2021/05/26 02:51:20;;;;;;;1.90;1.05;;;;;;;6.12;67.29;95690.78;5092787;28;20513;-72
2021/05/26 02:53:46;;;;;;;1.80;1.00;;;;;;;6.16;66.58;95681.47;5102739;28;20040;-71
2021/05/26 02:56:11;;;;;;;2.45;1.00;;;;;;;6.12;67.44;95680.34;5091629;28;20550;-72
2021/05/26 02:58:38;;;;;;;3.13;1.08;;;;;;;6.11;67.22;95684.00;5100306;28;20036;-74
2021/05/26 03:01:03;;;;;;;1.88;1.20;;;;;;;6.07;67.63;95679.22;5110521;28;20040;-72
2021/05/26 03:03:29;;;;;;;1.25;1.15;;;;;;;5.96;67.88;95672.25;5112515;28;20092;-75
2021/05/26 03:05:55;;;;;;;1.35;1.05;;;;;;;6.02;68.04;95671.31;5101394;28;20040;-73
2021/05/26 03:08:21;;;;;;;1.17;1.05;;;;;;;5.89;68.76;95679.44;5096115;28;20066;-72
2021/05/26 03:10:46;;;;;;;1.10;1.00;;;;;;;5.87;68.61;95663.19;5093163;28;20044;-70
2021/05/26 03:13:12;;;;;;;3.63;1.30;;;;;;;5.89;68.34;95671.59;5100921;28;20055;-72
2021/05/26 03:15:37;;;;;;;2.15;1.10;;;;;;;5.84;68.36;95674.91;5097103;28;20057;-73
2021/05/26 03:18:05;;;;;;;2.90;1.05;;;;;;;5.95;67.92;95669.84;5104706;28;20047;-72
2021/05/26 03:20:31;;;;;;;1.63;1.10;;;;;;;5.86;68.68;95661.59;5092211;28;20048;-71
2021/05/26 03:22:57;;;;;;;1.70;0.90;;;;;;;5.90;67.30;95668.75;5102628;28;20044;-72
2021/05/26 03:25:24;;;;;;;1.20;1.10;;;;;;;5.97;67.66;95663.38;5091617;28;20532;-72
2021/05/26 03:27:49;;;;;;;2.78;1.20;;;;;;;5.96;67.36;95667.03;5091832;28;20502;-72
2021/05/26 03:30:18;;;;;;;3.17;1.10;;;;;;;5.93;68.08;95662.25;5091836;28;20093;-72
2021/05/26 03:32:44;;;;;;;1.25;1.00;;;;;;;6.02;67.43;95663.50;5101746;28;20040;-73
2021/05/26 03:35:13;;;;;;;2.15;1.17;;;;;;;6.03;66.99;95667.69;5099035;28;20045;-73
2021/05/26 03:37:39;;;;;;;1.95;0.93;;;;;;;6.03;67.37;95662.47;5111478;28;20050;-72
2021/05/26 03:40:07;;;;;;;2.40;1.10;;;;;;;5.95;68.41;95660.19;5104803;28;20047;-72
2021/05/26 03:42:32;;;;;;;2.35;1.00;;;;;;;6.01;67.45;95669.72;5111936;28;20447;-72
2021/05/26 03:44:58;;;;;;;2.33;1.10;;;;;;;5.97;68.08;95663.38;5091705;28;20101;-72
2021/05/26 03:47:24;;;;;;;2.75;1.10;;;;;;;6.03;67.21;95657.25;5102579;28;20399;-72
2021/05/26 03:49:49;;;;;;;2.58;1.10;;;;;;;6.11;68.40;95660.50;5094150;28;20477;-72
2021/05/26 03:52:15;;;;;;;3.97;1.45;;;;;;;6.18;67.60;95658.50;5107885;28;20036;-72
2021/05/26 03:54:40;;;;;;;2.58;0.77;;;;;;;6.15;67.43;95664.19;5109076;28;20042;-73
2021/05/26 03:57:06;;;;;;;1.17;0.98;;;;;;;6.18;67.48;95659.28;5104756;28;20045;-72
2021/05/26 03:59:32;;;;;;;3.72;1.20;;;;;;;6.21;67.47;95652.81;5111822;28;20039;-73
2021/05/26 04:01:58;;;;;;;2.05;1.05;;;;;;;6.24;68.13;95647.88;5108142;28;20035;-72
2021/05/26 04:04:23;;;;;;;1.15;0.82;;;;;;;6.26;68.35;95655.50;5097447;28;20040;-72
2021/05/26 04:06:49;;;;;;;3.88;1.20;;;;;;;6.35;67.77;95653.25;5090647;28;20063;-72
2021/05/26 04:09:14;;;;;;;1.42;0.93;;;;;;;6.37;67.89;95646.78;5090642;28;20037;-72
2021/05/26 04:11:41;;;;;;;1.60;1.00;;;;;;;6.40;67.09;95643.69;5099328;28;20039;-72
2021/05/26 04:14:07;;;;;;;4.10;1.17;;;;;;;6.44;67.01;95645.81;5108807;28;20031;-72
2021/05/26 04:16:33;;;;;;;3.63;1.05;;;;;;;6.46;68.03;95649.00;5104737;28;20756;-72
2021/05/26 04:18:59;;;;;;;3.08;1.00;;;;;;;6.55;66.62;95647.53;5103411;28;20100;-72
2021/05/26 04:21:24;;;;;;;1.85;1.10;;;;;;;6.62;66.53;95642.94;5109221;28;20122;-72
2021/05/26 04:23:50;;;;;;;1.55;1.00;;;;;;;6.71;66.70;95641.50;5101487;28;20048;-73
2021/05/26 04:26:16;;;;;;;1.35;1.00;;;;;;;6.75;64.88;95647.84;5102340;28;20069;-74
2021/05/26 04:28:45;;;;;;;3.90;1.27;;;;;;;6.87;65.12;95641.72;5090658;28;20037;-73
2021/05/26 04:31:12;;;;;;;1.10;1.00;;;;;;;6.91;66.32;95634.94;5092310;28;20044;-72
2021/05/26 04:33:39;;;;;;;3.20;1.40;;;;;;;7.01;65.27;95640.31;5090662;28;20046;-73
2021/05/26 04:36:05;;;;;;;1.50;1.20;;;;;;;7.17;64.77;95638.69;5095209;28;20082;-72
2021/05/26 04:38:31;;;;;;;1.08;0.90;;;;;;;7.18;63.86;95635.00;5105487;28;20166;-72
2021/05/26 04:40:57;;;;;;;1.17;1.00;;;;;;;7.26;62.68;95636.41;5099796;28;20144;-72
2021/05/26 04:43:23;;;;;;;1.90;1.00;;;;;;;7.35;62.79;95634.94;5110324;28;20051;-72
2021/05/26 04:45:48;;;;;;;4.18;1.33;;;;;;;7.44;62.98;95638.72;5104452;28;20043;-72
2021/05/26 04:48:14;;;;;;;1.23;1.08;;;;;;;7.56;61.66;95630.72;5104723;28;20228;-73
2021/05/26 04:50:40;;;;;;;1.70;1.20;;;;;;;7.90;61.63;95629.72;5094282;28;20088;-72
2021/05/26 04:53:06;;;;;;;1.05;0.93;;;;;;;7.86;60.92;95629.44;5108116;28;20137;-71
2021/05/26 04:55:31;;;;;;;2.10;0.95;;;;;;;7.99;60.52;95628.22;5095818;28;20481;-72
2021/05/26 04:58:01;;;;;;;1.40;1.10;;;;;;;8.11;60.48;95631.47;5102675;28;20055;-72
2021/05/26 05:00:27;;;;;;;1.55;0.98;;;;;;;8.10;60.38;95635.16;5101953;28;20063;-72
2021/05/26 05:02:53;;;;;;;1.48;1.05;;;;;;;8.14;61.36;95625.72;5109821;28;20086;-72
2021/05/26 05:05:20;;;;;;;1.17;1.08;;;;;;;8.20;60.15;95623.13;5109433;28;20503;-72
2021/05/26 05:07:45;;;;;;;1.48;0.90;;;;;;;8.33;59.93;95634.00;5107422;28;20043;-72
2021/05/26 05:10:12;;;;;;;2.70;1.10;;;;;;;8.39;60.63;95631.41;5102121;28;20122;-72
2021/05/26 05:12:37;;;;;;;2.90;1.10;;;;;;;8.56;58.69;95632.09;5090264;28;20359;-72
2021/05/26 05:15:04;;;;;;;1.10;1.00;;;;;;;8.65;59.45;95641.06;5089521;28;20051;-72
2021/05/26 05:17:30;;;;;;;2.20;1.02;;;;;;;8.69;58.38;95633.44;5090566;28;20040;-72
2021/05/26 05:19:55;;;;;;;1.15;0.90;;;;;;;8.84;58.74;95638.78;5097473;28;20470;-72
2021/05/26 05:22:21;;;;;;;1.58;1.13;;;;;;;9.00;57.96;95636.25;5105471;28;20485;-72
2021/05/26 05:24:46;;;;;;;5.80;1.35;;;;;;;8.98;57.93;95627.84;5091341;28;20036;-72
2021/05/26 05:27:12;;;;;;;0.75;0.75;;;;;;;9.06;58.00;95632.59;5101014;28;20058;-72
2021/05/26 05:29:37;;;;;;;1.92;1.10;;;;;;;9.10;58.09;95631.03;5106238;28;20031;-73
2021/05/26 05:32:03;;;;;;;1.95;1.10;;;;;;;9.11;58.57;95631.84;5105703;28;20043;-73
2021/05/26 05:34:29;;;;;;;1.60;0.90;;;;;;;9.22;57.89;95624.78;5106720;28;20035;-74
2021/05/26 05:36:54;;;;;;;3.00;0.93;;;;;;;9.35;59.03;95632.97;5089877;28;20487;-72
2021/05/26 05:39:20;;;;;;;2.85;1.27;;;;;;;9.38;57.42;95631.69;5096639;28;20040;-71
2021/05/26 05:41:46;;;;;;;2.17;1.00;;;;;;;9.50;58.06;95624.34;5107417;28;20481;-70
2021/05/26 05:44:12;;;;;;;1.95;0.80;;;;;;;9.52;57.26;95627.50;5093387;28;20077;-75
2021/05/26 05:46:37;;;;;;;3.25;0.90;;;;;;;9.65;58.99;95620.16;5089288;28;20048;-71
2021/05/26 05:49:03;;;;;;;2.60;1.10;;;;;;;9.80;57.42;95616.78;5089952;28;20039;-70
2021/05/26 05:51:28;;;;;;;1.30;0.75;;;;;;;9.84;56.29;95618.63;5098565;28;20046;-70
2021/05/26 05:53:54;;;;;;;1.92;1.10;;;;;;;10.01;55.71;95614.94;5099069;28;20139;-70
2021/05/26 05:56:20;;;;;;;1.90;1.05;;;;;;;10.14;55.62;95606.56;5103806;28;20040;-70
2021/05/26 05:58:46;;;;;;;2.38;1.13;;;;;;;10.29;55.38;95613.63;5089855;28;20383;-71
2021/05/26 06:01:11;;;;;;;0.80;0.80;;;;;;;10.49;54.75;95612.84;5101011;28;20575;-70
2021/05/26 06:03:37;;;;;;;2.55;1.00;;;;;;;10.60;53.03;95602.28;5107804;28;20074;-70
2021/05/26 06:06:03;;;;;;;2.05;1.13;;;;;;;10.72;52.65;95602.81;5095080;28;20052;-70
2021/05/26 06:08:29;;;;;;;2.65;0.98;;;;;;;10.80;53.07;95606.72;5089350;28;20039;-70
2021/05/26 06:10:54;;;;;;;2.15;1.00;;;;;;;10.92;52.17;95615.91;5095907;28;20055;-70
2021/05/26 06:13:20;;;;;;;1.23;1.00;;;;;;;11.02;51.82;95603.75;5104136;28;20043;-71
2021/05/26 06:15:45;;;;;;;1.85;1.05;;;;;;;11.12;50.84;95603.72;5090744;28;20047;-70
2021/05/26 06:18:11;;;;;;;1.95;0.90;;;;;;;11.23;50.86;95610.53;5095867;28;20052;-70
2021/05/26 06:20:36;;;;;;;2.08;0.98;;;;;;;11.37;51.20;95604.66;5095361;28;20066;-71
2021/05/26 06:23:02;;;;;;;1.10;0.82;;;;;;;11.39;50.75;95597.25;5094933;28;20077;-71
2021/05/26 06:25:28;;;;;;;1.73;0.98;;;;;;;11.40;49.67;95593.56;5093959;28;20058;-71
2021/05/26 06:27:54;;;;;;;1.67;1.10;;;;;;;11.43;49.97;95593.03;5103190;28;20485;-70
2021/05/26 06:30:19;;;;;;;1.42;0.88;;;;;;;11.51;50.55;95599.59;5107773;28;20055;-70
2021/05/26 06:32:45;;;;;;;1.73;0.90;;;;;;;11.62;50.02;95606.34;5102592;28;20116;-69
2021/05/26 06:35:12;;;;;;;3.67;1.10;;;;;;;11.81;49.50;95588.06;5109547;28;20051;-71
2021/05/26 06:37:37;;;;;;;2.80;1.02;;;;;;;11.94;49.52;95598.00;5105380;28;20108;-71
2021/05/26 06:40:05;;;;;;;1.45;0.95;;;;;;;12.01;46.66;95587.16;5096941;28;20700;-70
2021/05/26 06:42:31;;;;;;;2.67;1.05;;;;;;;12.01;48.03;95586.34;5109347;28;20039;-71
2021/05/26 06:44:57;;;;;;;1.38;1.10;;;;;;;12.18;47.10;95592.00;5104984;28;20067;-71
2021/05/26 06:47:23;;;;;;;1.55;1.10;;;;;;;12.32;47.16;95586.88;5108891;28;20042;-71
2021/05/26 06:49:48;;;;;;;2.92;1.38;;;;;;;12.46;47.17;95587.00;5097304;28;20505;-71
2021/05/26 06:52:14;;;;;;;1.75;0.90;;;;;;;12.56;46.81;95586.91;5112176;28;20189;-70
2021/05/26 06:54:39;;;;;;;1.05;1.00;;;;;;;12.56;45.56;95581.63;5107601;27;20035;-71
2021/05/26 06:57:06;;;;;;;2.28;0.98;;;;;;;12.59;45.43;95582.94;5098102;28;20043;-70
2021/05/26 06:59:31;;;;;;;1.15;0.80;;;;;;;12.58;46.71;95579.47;5092566;28;20050;-69
2021/05/26 07:01:58;;;;;;;1.73;1.00;;;;;;;12.65;44.65;95579.94;5094089;28;20048;-70
2021/05/26 07:04:24;;;;;;;1.48;0.95;;;;;;;12.65;44.91;95579.94;5091607;28;20081;-70
2021/05/26 07:06:49;;;;;;;1.38;0.95;;;;;;;12.74;45.26;95577.50;5107377;28;20031;-71
2021/05/26 07:09:15;;;;;;;3.17;1.20;;;;;;;12.72;44.94;95576.19;5103560;28;20047;-70
2021/05/26 07:11:41;;;;;;;1.05;0.90;;;;;;;12.80;44.74;95578.19;5101099;28;20047;-70
2021/05/26 07:14:06;;;;;;;1.90;0.75;;;;;;;12.80;44.69;95575.56;5111459;28;20105;-70
2021/05/26 07:16:32;;;;;;;1.77;1.00;;;;;;;12.80;44.68;95575.56;5094215;27;20085;-69
2021/05/26 07:18:59;;;;;;;0.88;0.85;;;;;;;12.96;44.40;95571.69;5091937;28;20048;-70
2021/05/26 07:21:28;;;;;;;2.03;1.25;;;;;;;12.99;44.22;95563.19;5097157;28;20035;-70
2021/05/26 07:23:56;;;;;;;1.65;1.00;;;;;;;12.93;45.49;95564.31;5098310;28;20060;-71
2021/05/26 07:26:22;;;;;;;2.30;1.10;;;;;;;13.12;44.05;95566.22;5095344;28;20063;-70
2021/05/26 07:28:48;;;;;;;2.05;1.05;;;;;;;13.26;43.67;95555.72;5096368;28;20056;-69
2021/05/26 07:31:15;;;;;;;1.02;0.93;;;;;;;13.22;43.34;95550.22;5110433;28;20039;-70
2021/05/26 07:33:40;;;;;;;1.27;0.90;;;;;;;13.20;43.50;95557.63;5105971;28;20062;-70
2021/05/26 07:36:06;;;;;;;0.80;0.80;;;;;;;13.27;42.49;95552.78;5111219;28;20044;-70
2021/05/26 07:38:32;;;;;;;1.02;0.90;;;;;;;13.59;41.73;95553.97;5095304;27;20046;-70
2021/05/26 07:40:58;;;;;;;0.80;0.80;;;;;;;13.60;40.10;95544.94;5104788;28;20051;-70
2021/05/26 07:43:24;;;;;;;1.85;0.90;;;;;;;13.61;40.78;95541.25;5102558;28;20044;-70
2021/05/26 07:45:50;;;;;;;1.25;1.13;;;;;;;13.73;42.59;95537.38;5103536;28;20143;-71
2021/05/26 07:48:16;;;;;;;0.88;0.88;;;;;;;14.08;39.76;95537.88;5107858;28;20104;-70
2021/05/26 07:50:42;;;;;;;1.83;1.10;;;;;;;14.29;41.13;95533.78;5110102;28;20047;-69
2021/05/26 07:53:08;;;;;;;1.30;0.90;;;;;;;14.21;40.49;95527.31;5103958;28;20093;-71
2021/05/26 07:55:34;;;;;;;2.60;0.95;;;;;;;14.25;40.85;95527.53;5096335;28;20048;-70
2021/05/26 07:57:59;;;;;;;1.27;0.90;;;;;;;14.20;39.96;95535.53;5103262;28;20043;-70
2021/05/26 08:00:25;;;;;;;1.75;1.10;;;;;;;14.16;41.03;95523.97;5102315;28;20054;-71
2021/05/26 08:02:51;;;;;;;1.70;1.10;;;;;;;14.08;40.81;95512.19;5092901;28;20056;-74
2021/05/26 08:05:18;;;;;;;2.35;1.33;;;;;;;13.98;40.47;95518.44;5098960;28;20507;-71
2021/05/26 08:07:44;;;;;;;1.58;1.08;;;;;;;14.30;41.20;95514.19;5095862;28;20063;-70
2021/05/26 08:10:12;;;;;;;2.13;1.10;;;;;;;14.58;41.10;95514.19;5090974;28;20059;-68
2021/05/26 08:12:37;;;;;;;2.70;1.23;;;;;;;14.45;38.95;95509.69;5091736;28;20134;-70
2021/05/26 08:15:05;;;;;;;1.17;0.88;;;;;;;14.53;41.84;95509.78;5104252;28;20071;-70
2021/05/26 08:17:30;;;;;;;2.22;1.30;;;;;;;14.43;40.49;95512.63;5110615;28;20043;-70
2021/05/26 08:19:56;;;;;;;1.75;1.05;;;;;;;14.54;39.62;95510.59;5096635;28;20036;-69
2021/05/26 08:22:21;;;;;;;2.72;1.00;;;;;;;14.49;41.77;95502.72;5106655;28;20051;-70
2021/05/26 08:24:47;;;;;;;1.75;0.93;;;;;;;14.46;40.40;95511.25;5106907;28;20031;-70
2021/05/26 08:27:12;;;;;;;1.40;0.90;;;;;;;14.30;41.90;95506.25;5102257;28;20408;-70
2021/05/26 08:29:38;;;;;;;1.58;1.00;;;;;;;14.31;41.67;95505.19;5090558;28;20162;-69
2021/05/26 08:32:04;;;;;;;1.65;1.00;;;;;;;14.18;42.11;95505.97;5104467;28;20046;-70
2021/05/26 08:34:29;;;;;;;2.58;1.15;;;;;;;14.27;41.52;95498.13;5095635;28;20452;-69
2021/05/26 08:36:58;;;;;;;1.88;0.80;;;;;;;14.30;41.20;95487.72;5097698;28;20497;-70
2021/05/26 08:39:23;;;;;;;1.35;1.00;;;;;;;14.49;40.38;95505.38;5103997;28;20077;-70
2021/05/26 08:41:52;;;;;;;1.63;1.27;;;;;;;14.26;40.93;95497.31;5104764;28;20269;-69
2021/05/26 08:44:17;;;;;;;2.03;1.23;;;;;;;14.36;41.74;95497.13;5100197;28;20043;-70
2021/05/26 08:46:43;;;;;;;3.78;1.10;;;;;;;14.40;41.61;95507.16;5105371;28;20122;-70
2021/05/26 08:49:10;;;;;;;2.40;1.10;;;;;;;14.28;40.59;95492.53;5106660;28;20039;-70
2021/05/26 08:51:36;;;;;;;2.47;1.08;;;;;;;14.26;40.75;95489.38;5108029;27;20040;-70
2021/05/26 08:54:02;;;;;;;0.90;0.90;;;;;;;14.42;41.03;95489.09;5108114;28;20047;-70
2021/05/26 08:56:27;;;;;;;3.30;1.27;;;;;;;14.56;41.99;95484.59;5108301;28;20052;-70
2021/05/26 08:58:53;;;;;;;1.77;1.20;;;;;;;14.49;42.31;95489.50;5103574;28;20416;-70
2021/05/26 09:01:22;;;;;;;3.58;1.63;;;;;;;14.53;42.50;95490.47;5105413;28;20050;-70
2021/05/26 09:03:50;;;;;;;3.33;1.15;;;;;;;14.66;42.39;95489.72;5109111;28;20035;-70
2021/05/26 09:06:16;;;;;;;2.03;1.00;;;;;;;14.49;41.80;95490.25;5108419;27;20043;-69
2021/05/26 09:08:52;;;;;;;2.25;1.00;;;;;;;14.38;40.65;95479.09;5105031;28;20031;-70
2021/05/26 09:11:30;;;;;;;1.52;1.10;;;;;;;14.43;41.01;95480.88;5108555;28;20042;-70
2021/05/26 09:13:56;;;;;;;3.03;1.30;;;;;;;14.69;40.61;95467.91;5108744;28;20059;-70
2021/05/26 09:16:24;;;;;;;4.25;1.20;;;;;;;14.76;40.07;95461.47;5108531;28;20043;-70
2021/05/26 09:18:56;;;;;;;3.17;1.40;;;;;;;14.77;40.24;95468.31;5103523;28;20460;-70
2021/05/26 09:21:45;;;;;;;1.48;1.10;;;;;;;14.75;40.06;95475.78;5107635;28;20508;-71
2021/05/26 09:24:20;;;;;;;2.47;1.08;;;;;;;14.99;41.46;95476.31;5104585;28;20488;-69
2021/05/26 09:26:54;;;;;;;2.00;1.20;;;;;;;14.99;40.70;95478.19;5102718;28;20051;-71
2021/05/26 09:29:27;;;;;;;1.52;1.23;;;;;;;14.75;40.77;95475.78;5102390;28;20036;-70
2021/05/26 09:32:14;;;;;;;1.95;1.33;;;;;;;14.89;40.51;95471.25;5103248;28;20096;-70
2021/05/26 09:34:43;;;;;;;2.42;1.30;;;;;;;14.83;40.97;95467.91;5101984;28;20496;-70
2021/05/26 09:37:13;;;;;;;1.08;0.98;;;;;;;14.71;41.14;95455.19;5100949;28;20047;-71
2021/05/26 09:39:57;;;;;;;4.63;1.30;;;;;;;14.69;41.75;95457.31;5101251;28;20043;-70
2021/05/26 09:42:35;;;;;;;2.15;1.10;;;;;;;14.90;40.37;95456.91;5102893;28;20036;-70
2021/05/26 09:45:17;;;;;;;2.05;1.20;;;;;;;14.94;40.27;95442.00;5103267;28;20466;-71
2021/05/26 09:47:43;;;;;;;3.28;1.42;;;;;;;15.10;41.11;95445.09;5096392;28;20123;-70
2021/05/26 09:50:26;;;;;;;1.40;1.15;;;;;;;15.32;39.74;95436.34;5106691;28;20044;-70
2021/05/26 09:52:57;;;;;;;5.57;1.20;;;;;;;15.34;39.00;95439.50;5103876;28;20047;-69
2021/05/26 09:55:25;;;;;;;1.38;1.08;;;;;;;15.88;38.15;95430.81;5100685;28;20408;-70
2021/05/26 09:57:52;;;;;;;1.65;1.10;;;;;;;16.06;38.57;95437.75;5101292;28;20124;-70
2021/05/26 10:00:19;;;;;;;2.13;1.13;;;;;;;15.61;38.89;95437.78;5101868;28;20058;-70
2021/05/26 10:02:45;;;;;;;1.73;1.20;;;;;;;15.85;39.01;95442.03;5102206;28;20055;-71
2021/05/26 10:05:15;;;;;;;2.05;1.30;;;;;;;16.28;39.61;95449.41;5097632;28;20512;-70
2021/05/26 10:07:41;;;;;;;2.20;1.08;;;;;;;16.21;40.92;95439.22;5104459;28;20039;-70
2021/05/26 10:10:09;;;;;;;1.90;1.35;;;;;;;16.07;39.08;95443.84;5101264;28;20051;-71
2021/05/26 10:12:38;;;;;;;2.03;1.10;;;;;;;16.14;40.03;95443.41;5106162;28;20035;-70
2021/05/26 10:15:06;;;;;;;2.28;1.30;;;;;;;16.56;39.46;95449.16;5104099;28;20479;-70
2021/05/26 10:17:37;;;;;;;3.65;1.33;;;;;;;16.09;38.72;95437.16;5109376;28;20047;-70
2021/05/26 10:20:07;;;;;;;2.03;1.17;;;;;;;16.77;38.58;95433.44;5111397;28;20079;-71
2021/05/26 10:22:34;;;;;;;2.88;1.20;;;;;;;17.29;37.38;95416.75;5112029;28;20562;-70
2021/05/26 10:25:00;;;;;;;1.83;1.15;;;;;;;17.56;37.68;95425.50;5109750;28;20349;-71
2021/05/26 10:27:32;;;;;;;2.65;1.30;;;;;;;17.96;38.03;95433.25;5108436;28;20119;-70
2021/05/26 10:29:59;;;;;;;3.03;1.40;;;;;;;17.58;36.84;95428.59;5111663;28;20047;-71
2021/05/26 10:32:28;;;;;;;2.53;1.35;;;;;;;18.07;36.35;95434.44;5111749;28;20047;-70
2021/05/26 10:34:53;;;;;;;2.75;1.45;;;;;;;18.87;34.39;95423.06;5106704;27;20035;-71
2021/05/26 10:37:27;;;;;;;5.68;1.60;;;;;;;19.88;33.92;95415.97;5101621;28;20050;-71
2021/05/26 10:39:53;;;;;;;2.30;1.50;;;;;;;19.53;33.91;95415.50;5099036;28;20047;-70
2021/05/26 10:42:31;;;;;;;2.97;1.60;;;;;;;19.62;32.51;95407.41;5106018;28;20119;-70
2021/05/26 10:45:07;;;;;;;3.20;1.40;;;;;;;19.36;33.95;95411.09;5103246;28;20147;-70
2021/05/26 10:47:36;;;;;;;3.67;1.80;;;;;;;17.95;35.05;95416.47;5101833;28;20046;-70
2021/05/26 10:50:04;;;;;;;3.03;1.33;;;;;;;17.67;34.99;95411.53;5101687;28;20151;-71
2021/05/26 10:52:55;;;;;;;2.13;1.35;;;;;;;17.38;36.60;95406.09;5105768;28;20106;-69
2021/05/26 10:55:42;;;;;;;2.38;1.38;;;;;;;17.57;36.70;95408.41;5108380;28;20052;-70
2021/05/26 10:58:19;;;;;;;2.33;1.20;;;;;;;17.58;36.60;95404.66;5107240;28;20497;-70
2021/05/26 11:01:00;;;;;;;2.85;1.55;;;;;;;17.58;36.14;95402.00;5108759;28;20043;-70
2021/05/26 11:03:29;;;;;;;2.70;1.20;;;;;;;17.82;35.16;95402.22;5109460;28;20043;-71
2021/05/26 11:06:05;;;;;;;2.45;1.40;;;;;;;17.45;35.84;95399.19;5102256;28;20039;-71
2021/05/26 11:08:41;;;;;;;2.55;1.30;;;;;;;18.30;35.73;95404.91;5104953;28;20040;-70
2021/05/26 11:11:25;;;;;;;3.13;1.50;;;;;;;18.57;35.47;95408.97;5109785;28;20096;-71
2021/05/26 11:14:24;;;;;;;3.03;1.37;;;;;;;18.43;34.76;95414.56;5100791;28;20111;-71
2021/05/26 11:16:50;;;;;;;2.00;1.40;;;;;;;18.15;35.33;95404.34;5104670;28;20587;-71
2021/05/26 11:19:33;;;;;;;3.55;1.30;;;;;;;18.29;35.15;95408.69;5097533;28;20040;-71
2021/05/26 11:22:05;;;;;;;2.85;1.50;;;;;;;18.05;35.66;95410.03;5104438;28;20093;-71
2021/05/26 11:24:35;;;;;;;3.97;1.50;;;;;;;18.22;35.99;95405.75;5096175;28;20486;-72
2021/05/26 11:27:12;;;;;;;2.83;1.35;;;;;;;17.90;35.57;95405.19;5101288;28;20048;-70
2021/05/26 11:29:38;;;;;;;4.43;1.42;;;;;;;17.70;37.86;95404.78;5100095;28;20036;-73
2021/05/26 11:32:09;;;;;;;2.33;1.40;;;;;;;17.62;37.74;95395.72;5092105;28;20044;-71
2021/05/26 11:34:36;;;;;;;5.07;1.65;;;;;;;18.22;36.53;95392.41;5099035;28;20048;-79
2021/05/26 11:37:03;;;;;;;2.05;1.27;;;;;;;17.78;37.40;95387.22;5098403;28;20495;-73
2021/05/26 11:39:32;;;;;;;2.58;1.40;;;;;;;17.63;38.60;95391.19;5091547;28;20105;-77
2021/05/26 11:42:14;;;;;;;4.22;1.50;;;;;;;18.37;38.31;95394.50;5091979;28;20052;-71